Time;durP1;ratioP1;P1;durP2;ratioP2;P2;SDS_P1;SDS_P2;PMS_P1;PMS_P2;Temp;Humidity;BMP_temperature;BMP_pressure;BME280_temperature;BME280_humidity;BME280_pressure;Samples;Min_cycle;Max_cycle;Signal;HPM_P1;HPM_P2
2022/04/01 00:02:06;;;;;;;11.03;9.93;;;5.60;99.90;;;6.10;100.00;95873.13;5199588;28;20844;-56
2022/04/01 00:04:39;;;;;;;10.67;9.67;;;5.60;99.90;;;5.96;100.00;95884.34;5206242;28;20218;-57
2022/04/01 00:07:14;;;;;;;9.87;8.87;;;5.50;99.90;;;5.92;100.00;95882.44;5203728;28;20661;-59
2022/04/01 00:09:47;;;;;;;9.73;8.83;;;5.40;99.90;;;5.83;100.00;95880.38;5206182;28;20221;-57
2022/04/01 00:12:20;;;;;;;9.83;8.83;;;5.30;99.90;;;5.76;100.00;95889.41;5203230;28;20253;-57
2022/04/01 00:14:53;;;;;;;8.90;8.10;;;5.20;99.90;;;5.59;100.00;95881.06;5202420;28;20260;-58
2022/04/01 00:17:26;;;;;;;11.10;9.57;;;5.00;99.90;;;5.40;100.00;95886.97;5204551;28;20273;-57
2022/04/01 00:19:59;;;;;;;9.43;8.53;;;4.90;99.90;;;5.33;100.00;95890.03;5203420;28;20209;-58
2022/04/01 00:22:33;;;;;;;9.97;8.97;;;4.80;99.90;;;5.29;100.00;95895.75;5205544;28;20196;-58
2022/04/01 00:25:08;;;;;;;9.80;8.90;;;4.80;99.90;;;5.33;100.00;95895.09;5202233;28;20216;-59
2022/04/01 00:27:41;;;;;;;9.63;8.73;;;4.90;99.90;;;5.27;100.00;95902.44;5203395;28;20235;-58
2022/04/01 00:30:14;;;;;;;9.87;8.30;;;4.80;99.90;;;5.10;100.00;95893.19;5209656;28;20296;-59
2022/04/01 00:32:48;;;;;;;10.20;9.10;;;4.70;99.90;;;4.98;100.00;95893.50;5207333;28;20251;-59
2022/04/01 00:35:21;;;;;;;9.97;8.70;;;4.60;99.90;;;5.05;100.00;95894.66;5207821;28;20307;-58
2022/04/01 00:37:55;;;;;;;9.63;8.63;;;4.70;99.90;;;5.05;100.00;95899.72;5209375;28;20252;-55
2022/04/01 00:40:28;;;;;;;10.07;9.07;;;4.60;99.90;;;5.12;100.00;95891.56;5214702;28;20250;-57
2022/04/01 00:43:01;;;;;;;9.03;8.23;;;4.70;99.90;;;5.10;100.00;95893.19;5205789;28;20668;-59
2022/04/01 00:45:34;;;;;;;9.47;8.57;;;4.60;99.90;;;5.18;100.00;95899.47;5213444;28;20658;-57
2022/04/01 00:48:08;;;;;;;9.20;8.40;;;4.70;99.90;;;5.24;100.00;95904.81;5207206;28;20231;-59
2022/04/01 00:50:42;;;;;;;10.17;8.70;;;4.80;99.90;;;5.22;100.00;95906.41;5204972;28;20287;-57
2022/04/01 00:53:18;;;;;;;9.73;8.73;;;4.70;99.90;;;5.10;100.00;95893.19;5205876;28;20311;-59
2022/04/01 00:55:52;;;;;;;8.67;7.77;;;4.60;99.90;;;5.03;100.00;95897.09;5206714;28;20636;-58
2022/04/01 00:58:25;;;;;;;7.87;7.17;;;4.50;99.90;;;5.01;100.00;95892.75;5211118;28;20296;-59
2022/04/01 01:00:59;;;;;;;7.63;6.93;;;4.50;99.90;;;4.96;100.00;95895.94;5203977;28;20607;-59
2022/04/01 01:03:32;;;;;;;6.60;6.10;;;4.50;99.90;;;4.90;100.00;95895.66;5205319;28;20202;-59
2022/04/01 01:06:08;;;;;;;7.87;7.07;;;4.40;99.90;;;4.74;100.00;95901.66;5204240;28;20202;-59
2022/04/01 01:08:42;;;;;;;7.53;6.83;;;4.30;99.90;;;4.68;100.00;95898.84;5208107;28;20198;-58
2022/04/01 01:11:15;;;;;;;6.93;6.33;;;4.30;99.90;;;4.61;100.00;95901.03;5205686;28;20225;-56
2022/04/01 01:13:48;;;;;;;7.43;6.83;;;4.10;99.90;;;4.61;100.00;95893.44;5210042;28;20247;-57
2022/04/01 01:16:22;;;;;;;6.97;6.37;;;4.10;99.90;;;4.59;100.00;95898.41;5210102;28;20202;-59
2022/04/01 01:19:03;;;;;;;7.27;6.57;;;4.20;99.90;;;4.61;100.00;95889.25;5215951;28;20204;-58
2022/04/01 01:21:37;;;;;;;7.70;7.00;;;4.10;99.90;;;4.58;100.00;95893.25;5202280;28;20224;-57
2022/04/01 01:24:15;;;;;;;7.73;7.07;;;4.10;99.90;;;4.63;100.00;95891.81;5206401;28;20302;-57
2022/04/01 01:26:53;;;;;;;7.40;6.80;;;4.30;99.90;;;4.73;100.00;95891.47;5205755;28;20256;-59
2022/04/01 01:29:33;;;;;;;9.10;7.60;;;4.40;99.90;;;4.76;100.00;95888.22;5212972;28;20336;-59
2022/04/01 01:32:10;;;;;;;7.57;6.87;;;4.40;99.90;;;4.79;100.00;95895.97;5208034;28;20276;-59
2022/04/01 01:34:43;;;;;;;7.73;6.97;;;4.30;99.90;;;4.72;100.00;95879.59;5208839;28;20585;-58
2022/04/01 01:37:16;;;;;;;7.23;6.53;;;4.30;99.90;;;4.69;100.00;95879.47;5214776;28;20236;-57
2022/04/01 01:39:49;;;;;;;7.77;7.07;;;4.20;99.90;;;4.68;100.00;95880.28;5202364;28;20762;-58
2022/04/01 01:42:24;;;;;;;7.47;6.83;;;4.20;99.90;;;4.75;100.00;95879.78;5209799;28;20280;-59
2022/04/01 01:44:58;;;;;;;7.67;6.97;;;4.30;99.90;;;4.72;100.00;95880.50;5209227;28;20316;-59
2022/04/01 01:47:31;;;;;;;7.33;6.63;;;4.30;99.90;;;4.74;100.00;95889.00;5213757;28;20657;-58
2022/04/01 01:55:47;;;;;;;8.20;7.40;;;4.00;99.90;;;4.55;100.00;95881.38;5210144;28;20312;-58
2022/04/01 01:58:21;;;;;;;8.37;7.50;;;4.00;99.90;;;4.44;100.00;95883.38;5203772;28;20236;-59
2022/04/01 02:00:54;;;;;;;8.33;7.63;;;4.00;99.90;;;4.48;100.00;95885.25;5213322;28;20296;-58
2022/04/01 02:03:28;;;;;;;8.97;7.70;;;4.00;99.90;;;4.48;100.00;95884.38;5212881;28;20251;-59
2022/04/01 02:06:02;;;;;;;9.63;8.63;;;4.10;99.90;;;4.46;100.00;95871.69;5215630;28;20641;-60
2022/04/01 02:08:36;;;;;;;8.57;7.77;;;4.10;99.90;;;4.45;100.00;95880.03;5206896;28;20284;-57
2022/04/01 02:11:09;;;;;;;8.37;7.57;;;4.00;99.90;;;4.28;100.00;95880.88;5207643;28;20274;-58
2022/04/01 02:13:45;;;;;;;8.50;7.70;;;3.90;99.90;;;4.06;100.00;95884.91;5208515;28;20686;-58
2022/04/01 02:16:18;;;;;;;8.40;7.70;;;3.70;99.90;;;4.07;100.00;95889.16;5201847;28;20233;-55
2022/04/01 02:18:52;;;;;;;7.93;7.23;;;3.70;99.90;;;4.05;100.00;95877.22;5208276;28;20233;-57
2022/04/01 02:21:25;;;;;;;7.80;7.10;;;3.70;99.90;;;3.98;100.00;95880.25;5204573;28;20236;-58
2022/04/01 02:23:58;;;;;;;8.23;7.43;;;3.60;99.90;;;3.99;100.00;95877.78;5206244;28;20314;-56
2022/04/01 02:26:31;;;;;;;8.63;7.73;;;3.60;99.90;;;4.17;100.00;95874.44;5202260;28;20198;-58
2022/04/01 02:29:07;;;;;;;9.20;8.30;;;3.80;99.90;;;4.27;100.00;95884.22;5203038;28;20295;-59
2022/04/01 02:31:40;;;;;;;9.20;8.30;;;3.90;99.90;;;4.38;100.00;95883.09;5212910;28;20199;-59
2022/04/01 02:34:13;;;;;;;9.60;8.70;;;4.00;99.90;;;4.42;100.00;95882.41;5204056;28;20232;-59
2022/04/01 02:36:46;;;;;;;8.80;7.90;;;4.00;99.90;;;4.49;100.00;95881.94;5209878;28;20239;-58
2022/04/01 02:39:19;;;;;;;8.17;7.37;;;4.00;99.90;;;4.43;100.00;95886.69;5209442;28;20645;-58
2022/04/01 02:41:52;;;;;;;8.40;7.67;;;3.90;99.90;;;4.47;100.00;95882.66;5200126;28;20715;-57
2022/04/01 02:44:27;;;;;;;9.13;8.23;;;3.90;99.90;;;4.50;100.00;95882.81;5208465;28;20563;-60
2022/04/01 02:46:59;;;;;;;8.87;7.60;;;4.00;99.90;;;4.59;100.00;95878.16;5202347;28;20350;-59
2022/04/01 02:49:32;;;;;;;7.40;6.80;;;4.00;99.90;;;4.48;100.00;95877.66;5211613;28;20189;-56
2022/04/01 02:52:06;;;;;;;7.80;7.17;;;3.90;99.90;;;4.29;100.00;95883.50;5207640;28;20203;-59
2022/04/01 02:54:39;;;;;;;7.83;7.03;;;3.80;99.90;;;4.19;100.00;95890.56;5210138;28;20305;-59
2022/04/01 02:57:13;;;;;;;8.43;7.73;;;3.70;99.90;;;4.10;100.00;95885.06;5201951;28;20235;-57
2022/04/01 02:59:47;;;;;;;7.80;7.10;;;3.60;99.90;;;4.10;100.00;95890.09;5202929;28;20291;-59
2022/04/01 03:02:20;;;;;;;8.83;8.03;;;3.60;99.90;;;4.20;100.00;95885.56;5213504;28;20246;-57
2022/04/01 03:04:53;;;;;;;7.50;6.80;;;3.70;99.90;;;4.28;100.00;95884.28;5206162;28;20307;-55
2022/04/01 03:07:27;;;;;;;7.83;7.13;;;3.90;99.90;;;4.42;100.00;95892.53;5206766;28;20213;-59
2022/04/01 03:10:00;;;;;;;7.40;6.77;;;3.90;99.90;;;4.45;100.00;95890.16;5205631;28;20264;-57
2022/04/01 03:12:33;;;;;;;7.37;6.67;;;4.00;99.90;;;4.49;100.00;95892.06;5203823;28;20292;-59
2022/04/01 03:15:09;;;;;;;7.53;6.73;;;4.00;99.90;;;4.56;100.00;95897.41;5200986;28;20655;-59
2022/04/01 03:17:42;;;;;;;7.67;6.97;;;4.00;99.90;;;4.55;100.00;95896.53;5209286;28;20205;-56
2022/04/01 03:20:15;;;;;;;7.43;6.83;;;4.00;99.90;;;4.55;100.00;95899.06;5208951;28;20591;-57
2022/04/01 03:22:48;;;;;;;7.57;6.90;;;3.90;99.90;;;4.54;100.00;95899.84;5210184;28;20275;-56
2022/04/01 03:25:22;;;;;;;7.13;6.50;;;3.90;99.90;;;4.45;100.00;95900.28;5521112;22;20311;-59
2022/04/01 03:27:55;;;;;;;7.43;6.73;;;3.80;99.90;;;4.45;100.00;95904.47;5223320;28;20227;-60
2022/04/01 03:30:30;;;;;;;7.83;7.13;;;3.90;99.90;;;4.43;100.00;95904.38;5221710;28;20200;-58
2022/04/01 03:33:03;;;;;;;7.70;7.10;;;3.90;99.90;;;4.43;100.00;95906.91;5223194;28;20204;-58
2022/04/01 03:35:37;;;;;;;7.43;6.83;;;3.80;99.90;;;4.41;100.00;95902.59;5220245;28;20227;-59
2022/04/01 03:38:11;;;;;;;7.47;6.87;;;3.80;99.90;;;4.38;100.00;95908.38;5226197;28;20239;-57
2022/04/01 03:40:50;;;;;;;8.40;7.60;;;3.70;99.90;;;4.37;100.00;95909.16;5224446;28;20197;-59
2022/04/01 03:43:25;;;;;;;7.67;6.97;;;3.80;99.90;;;4.36;100.00;95907.41;5222496;28;20605;-58
2022/04/01 03:46:00;;;;;;;7.67;6.93;;;3.80;99.90;;;4.37;100.00;95905.75;5222372;28;20308;-59
2022/04/01 03:48:42;;;;;;;7.10;6.50;;;3.80;99.90;;;4.36;100.00;95907.41;5222373;28;20207;-60
2022/04/01 03:51:18;;;;;;;7.23;6.63;;;3.70;99.90;;;4.34;100.00;95906.47;5224482;28;20465;-57
2022/04/01 03:53:57;;;;;;;7.20;6.67;;;3.70;99.90;;;4.32;100.00;95900.50;5219642;28;20274;-58
2022/04/01 03:56:32;;;;;;;6.40;5.90;;;3.70;99.90;;;4.33;100.00;95904.75;5220762;28;20193;-59
2022/04/01 03:59:08;;;;;;;7.63;6.93;;;3.70;99.90;;;4.34;100.00;95903.94;5217973;28;20602;-59
2022/04/01 04:01:42;;;;;;;6.80;6.20;;;3.70;99.90;;;4.36;100.00;95904.03;5216150;28;20335;-59
2022/04/01 04:04:18;;;;;;;7.87;7.17;;;3.70;99.90;;;4.31;100.00;95901.25;5215716;28;20212;-55
2022/04/01 04:06:52;;;;;;;7.97;7.27;;;3.70;99.90;;;4.25;100.00;95911.06;5222112;28;20291;-58
2022/04/01 04:09:26;;;;;;;7.37;6.77;;;3.70;99.90;;;4.28;100.00;95916.28;5223415;28;20644;-58
2022/04/01 04:11:59;;;;;;;7.43;6.80;;;3.70;99.90;;;4.27;100.00;95917.94;5222119;28;20231;-57
2022/04/01 04:14:33;;;;;;;8.10;7.40;;;3.70;99.90;;;4.30;100.00;95914.72;5222831;28;20221;-56
2022/04/01 04:17:14;;;;;;;7.37;6.77;;;3.70;99.90;;;4.27;100.00;95919.63;5219012;28;20210;-59
2022/04/01 04:19:56;;;;;;;7.60;7.00;;;3.60;99.90;;;4.24;100.00;95916.94;5220557;28;20256;-57
2022/04/01 04:22:35;;;;;;;7.30;6.60;;;3.60;99.90;;;4.25;100.00;95918.66;5221360;28;20287;-55
2022/04/01 04:25:11;;;;;;;7.33;6.73;;;3.60;99.90;;;4.31;100.00;95918.97;5221292;28;21929;-58
2022/04/01 04:27:55;;;;;;;7.00;6.40;;;3.70;99.90;;;4.27;100.00;95925.53;5220556;28;20202;-60
2022/04/01 04:30:33;;;;;;;7.30;6.67;;;3.60;99.90;;;4.21;100.00;95919.31;5220825;28;20201;-60
2022/04/01 04:33:09;;;;;;;7.07;6.47;;;3.60;99.90;;;4.25;100.00;95921.19;5220849;28;20201;-56
2022/04/01 04:35:45;;;;;;;8.07;7.37;;;3.60;99.90;;;4.25;100.00;95927.13;5218740;28;20286;-57
2022/04/01 04:38:21;;;;;;;7.93;7.30;;;3.60;99.90;;;4.26;100.00;95922.91;5221465;28;20208;-56
2022/04/01 04:40:56;;;;;;;7.97;7.33;;;3.60;99.90;;;4.28;100.00;95926.41;5220440;28;20203;-60
2022/04/01 04:43:30;;;;;;;7.80;7.10;;;3.60;99.90;;;4.27;100.00;95922.16;5222064;28;20207;-58
2022/04/01 04:46:04;;;;;;;7.80;7.17;;;3.60;99.90;;;4.27;100.00;95922.16;5222264;28;20199;-57
2022/04/01 04:48:42;;;;;;;8.17;7.47;;;3.60;99.90;;;4.27;100.00;95924.69;5221514;28;20195;-58
2022/04/01 04:51:17;;;;;;;8.20;7.50;;;3.60;99.90;;;4.29;100.00;95925.59;5220450;28;20219;-59
2022/04/01 04:53:51;;;;;;;7.23;6.63;;;3.60;99.90;;;4.28;100.00;95931.47;5219983;28;20661;-57
2022/04/01 04:56:26;;;;;;;7.63;7.00;;;3.60;99.90;;;4.23;100.00;95927.81;5222250;28;20196;-57
2022/04/01 04:59:02;;;;;;;7.90;7.20;;;3.60;99.90;;;4.25;100.00;95932.16;5219827;28;20304;-57
2022/04/01 05:01:42;;;;;;;7.90;7.20;;;3.60;99.90;;;4.25;100.00;95934.69;5220792;28;20306;-58
2022/04/01 05:04:47;;;;;;;7.83;7.20;;;3.60;99.90;;;4.29;100.00;95934.06;5223257;28;20243;-58
2022/04/01 05:07:34;;;;;;;8.03;7.23;;;3.70;99.90;;;4.28;100.00;95946.63;5221366;28;20216;-59
2022/04/01 05:10:16;;;;;;;7.73;7.03;;;3.60;99.90;;;4.25;100.00;95947.34;5219620;28;20209;-58
2022/04/01 05:12:59;;;;;;;8.77;7.93;;;3.60;99.90;;;4.27;100.00;95948.28;5216388;28;20630;-59
2022/04/01 05:15:34;;;;;;;7.93;7.27;;;3.70;99.90;;;4.29;100.00;95945.81;5218388;28;20327;-58
2022/04/01 05:18:12;;;;;;;7.93;7.23;;;3.60;99.90;;;4.22;100.00;95959.84;5223165;28;20206;-58
2022/04/01 05:20:58;;;;;;;7.73;7.03;;;3.60;99.90;;;4.26;100.00;95959.22;5225211;28;20207;-61
2022/04/01 05:23:45;;;;;;;7.50;6.83;;;3.60;99.90;;;4.28;100.00;95961.81;5221129;28;20194;-58
2022/04/01 05:26:38;;;;;;;7.57;6.93;;;3.60;99.90;;;4.20;100.00;95958.00;5218892;28;20305;-59
2022/04/01 05:29:14;;;;;;;7.17;6.60;;;3.50;99.90;;;4.25;100.00;95971.75;5224591;28;20197;-58
2022/04/01 05:31:56;;;;;;;7.23;6.63;;;3.60;99.90;;;4.23;100.00;95960.69;5226990;28;20198;-58
2022/04/01 05:34:39;;;;;;;8.00;7.30;;;3.60;99.90;;;4.24;100.00;95968.38;5222332;28;20227;-59
2022/04/01 05:37:16;;;;;;;7.30;6.70;;;3.50;99.90;;;4.25;100.00;95971.75;5219758;28;20189;-58
2022/04/01 05:39:51;;;;;;;8.00;7.30;;;3.50;99.90;;;4.17;100.00;95965.44;5224910;28;20254;-60
2022/04/01 05:42:27;;;;;;;7.93;7.23;;;3.50;99.90;;;4.22;100.00;95969.09;5217948;28;20193;-60
2022/04/01 05:45:01;;;;;;;7.07;6.57;;;3.60;99.90;;;4.23;100.00;95971.66;5220790;28;20331;-58
2022/04/01 05:47:37;;;;;;;7.63;7.03;;;3.50;99.90;;;4.23;100.00;95974.19;5223314;28;20288;-56
2022/04/01 05:50:10;;;;;;;8.37;7.77;;;3.50;99.90;;;4.26;100.00;95981.06;5218534;28;20197;-57
2022/04/01 05:52:47;;;;;;;7.77;7.13;;;3.50;99.90;;;4.27;100.00;95980.31;5223704;28;20204;-60
2022/04/01 05:55:23;;;;;;;7.53;6.93;;;3.60;99.90;;;4.24;100.00;95986.06;5219180;28;20351;-58
2022/04/01 05:57:57;;;;;;;7.00;6.50;;;3.50;99.90;;;4.27;100.00;95990.41;5225301;28;20702;-60
2022/04/01 06:00:38;;;;;;;6.90;6.40;;;3.50;99.90;;;4.25;100.00;95994.53;5222066;28;20235;-59
2022/04/01 06:03:40;;;;;;;6.63;6.13;;;3.40;99.90;;;3.86;100.00;95995.84;5222801;28;21466;-60
2022/04/01 06:06:21;;;;;;;7.37;6.87;;;3.20;99.90;;;3.87;100.00;96000.16;5221455;28;20268;-61
2022/04/01 06:09:05;;;;;;;7.03;6.43;;;3.20;99.90;;;3.86;100.00;95999.25;5221876;28;20286;-59
2022/04/01 06:11:58;;;;;;;7.87;7.27;;;3.30;99.90;;;3.83;100.00;95994.94;5221200;28;20822;-59
2022/04/01 06:14:43;;;;;;;7.97;7.33;;;3.20;99.90;;;3.83;100.00;95994.94;5221460;28;20232;-60
2022/04/01 06:17:31;;;;;;;8.10;7.50;;;3.20;99.90;;;3.93;100.00;95995.41;5224116;28;20686;-57
2022/04/01 06:20:07;;;;;;;8.37;7.77;;;3.30;99.90;;;3.94;100.00;96003.06;5223870;28;20270;-56
2022/04/01 06:22:50;;;;;;;7.07;6.57;;;3.40;99.90;;;3.94;100.00;95999.66;5219231;28;20274;-59
2022/04/01 06:25:32;;;;;;;8.43;7.73;;;3.30;99.90;;;3.98;100.00;96002.44;5221250;28;20240;-58
2022/04/01 06:28:16;;;;;;;7.57;6.97;;;3.40;99.90;;;4.03;100.00;96002.66;5222679;28;20704;-57
2022/04/01 06:30:49;;;;;;;8.33;7.50;;;3.40;99.90;;;4.09;100.00;96014.75;5221864;28;20230;-59
2022/04/01 06:33:35;;;;;;;7.53;6.97;;;3.40;99.90;;;4.10;100.00;96017.38;5221132;28;20203;-59
2022/04/01 06:36:14;;;;;;;7.87;7.27;;;3.40;99.90;;;4.12;100.00;96015.78;5218256;28;20743;-57
2022/04/01 06:38:57;;;;;;;7.33;6.73;;;3.50;99.90;;;4.13;100.00;96014.13;5217558;28;20292;-57
2022/04/01 06:41:37;;;;;;;7.17;6.67;;;3.40;99.90;;;4.19;100.00;96014.44;5223486;28;20250;-59
2022/04/01 06:44:11;;;;;;;7.33;6.73;;;3.50;99.90;;;4.17;100.00;96018.53;5220332;28;20320;-58
2022/04/01 06:46:44;;;;;;;7.27;6.77;;;3.50;99.90;;;4.19;100.00;96015.31;5220296;28;20204;-56
2022/04/01 06:49:18;;;;;;;7.93;7.33;;;3.50;99.90;;;4.22;100.00;96014.59;5220105;28;20298;-58
2022/04/01 06:51:51;;;;;;;6.83;6.43;;;3.60;99.90;;;4.13;100.00;96030.16;5221378;28;20789;-57
2022/04/01 06:54:24;;;;;;;6.77;6.27;;;3.50;99.90;;;4.18;100.00;96023.69;5220298;28;20220;-59
2022/04/01 06:56:59;;;;;;;8.20;7.50;;;3.60;99.90;;;4.25;100.00;96023.19;5220116;28;20311;-56
2022/04/01 06:59:32;;;;;;;7.70;6.97;;;3.60;99.90;;;4.15;100.00;96031.13;5219289;28;20314;-55
2022/04/01 07:02:05;;;;;;;7.70;7.10;;;3.50;99.90;;;4.24;100.00;96020.59;5222044;28;20231;-59
2022/04/01 07:04:38;;;;;;;7.57;6.93;;;3.60;99.90;;;4.23;100.00;96023.91;5216007;28;20313;-58
2022/04/01 07:07:12;;;;;;;10.33;9.63;;;3.60;99.90;;;4.26;100.00;96024.06;5221574;28;20299;-58
2022/04/01 07:09:45;;;;;;;7.40;6.90;;;3.60;99.90;;;4.05;100.00;96028.88;5216523;28;20246;-56
2022/04/01 07:12:20;;;;;;;7.07;6.50;;;3.40;99.90;;;4.12;100.00;96030.06;5219735;28;21989;-59
2022/04/01 07:14:53;;;;;;;7.67;7.17;;;3.50;99.90;;;4.18;100.00;96032.94;5223164;28;20246;-56
2022/04/01 07:17:26;;;;;;;7.50;6.90;;;3.60;99.90;;;4.16;100.00;96029.44;5222076;28;20298;-59
2022/04/01 07:20:00;;;;;;;7.70;7.10;;;3.60;99.90;;;4.20;100.00;96028.81;5224624;28;20289;-59
2022/04/01 07:22:35;;;;;;;6.80;6.27;;;3.50;99.90;;;4.23;100.00;96029.81;5223853;28;20621;-59
2022/04/01 07:25:13;;;;;;;7.30;6.80;;;3.50;99.90;;;4.29;100.00;96024.22;5222707;28;20314;-61
2022/04/01 07:27:48;;;;;;;7.63;7.13;;;3.60;99.90;;;4.46;100.00;96031.03;5222692;28;20206;-58
2022/04/01 07:30:21;;;;;;;6.80;6.30;;;3.70;99.90;;;4.42;100.00;96031.66;5220400;28;20515;-58
2022/04/01 07:32:58;;;;;;;6.93;6.43;;;3.70;99.90;;;4.41;100.00;96029.91;5222600;28;20201;-58
2022/04/01 07:35:34;;;;;;;6.80;6.30;;;3.70;99.90;;;4.18;100.00;96028.75;5223432;28;20221;-57
2022/04/01 07:38:08;;;;;;;8.13;7.50;;;3.60;99.90;;;4.21;100.00;96036.47;5214580;28;20286;-59
2022/04/01 07:40:42;;;;;;;8.10;7.40;;;3.60;99.90;;;4.18;100.00;96041.38;5215137;28;20293;-59
2022/04/01 07:43:16;;;;;;;8.03;7.43;;;3.50;99.90;;;4.38;100.00;96049.09;5219387;28;20232;-57
2022/04/01 07:45:49;;;;;;;10.43;9.63;;;3.60;99.90;;;4.40;100.00;96043.34;5216182;28;20331;-57
2022/04/01 07:48:23;;;;;;;8.37;7.70;;;3.70;99.90;;;4.49;100.00;96048.88;5213234;28;20219;-58
2022/04/01 07:50:57;;;;;;;8.00;7.40;;;3.80;99.90;;;4.51;100.00;96044.75;5222467;28;20245;-58
2022/04/01 07:53:30;;;;;;;8.13;7.50;;;3.80;99.90;;;4.55;100.00;96047.44;5218332;28;20741;-58
2022/04/01 07:56:04;;;;;;;8.20;7.60;;;3.80;99.90;;;4.61;100.00;96045.25;5223053;28;20258;-58
2022/04/01 07:58:39;;;;;;;8.53;7.83;;;3.90;99.90;;;4.60;100.00;96041.81;5219869;28;20301;-60
2022/04/01 08:01:12;;;;;;;8.73;8.13;;;3.90;99.90;;;4.57;100.00;96048.38;5216210;28;20228;-59
2022/04/01 08:03:45;;;;;;;6.10;5.70;;;3.90;99.90;;;4.33;100.00;96056.47;5216179;28;20539;-57
2022/04/01 08:06:19;;;;;;;5.63;5.23;;;3.70;99.90;;;4.49;100.00;96048.88;5219423;28;20240;-60
2022/04/01 08:08:55;;;;;;;7.30;6.80;;;3.70;99.90;;;4.34;100.00;96055.66;5217166;28;20193;-59
2022/04/01 08:11:29;;;;;;;6.43;6.03;;;3.70;99.90;;;4.21;100.00;96060.91;5215481;28;20201;-56
2022/04/01 08:14:14;;;;;;;5.97;5.57;;;3.50;99.90;;;4.07;100.00;96058.50;5217674;28;20840;-57
2022/04/01 08:16:49;;;;;;;6.33;5.93;;;3.50;99.90;;;4.25;100.00;96063.66;5221901;28;20662;-55
2022/04/01 08:19:22;;;;;;;6.93;6.43;;;3.60;99.90;;;4.27;100.00;96067.13;5218323;28;20204;-59
2022/04/01 08:21:59;;;;;;;6.70;6.20;;;3.60;99.90;;;4.18;100.00;96065.81;5214647;28;20205;-58
2022/04/01 08:24:33;;;;;;;6.80;6.40;;;3.60;99.90;;;4.29;100.00;96074.78;5217200;28;20961;-55
2022/04/01 08:27:07;;;;;;;6.43;6.03;;;3.60;99.90;;;4.10;100.00;96067.06;5198565;28;20230;-58
2022/04/01 08:29:44;;;;;;;6.40;6.00;;;3.40;99.90;;;4.15;100.00;96070.66;5217563;28;20832;-58
2022/04/01 08:32:18;;;;;;;5.83;5.43;;;3.50;99.90;;;4.03;100.00;96074.31;5214199;28;20674;-59
2022/04/01 08:34:52;;;;;;;6.27;5.80;;;3.50;99.90;;;4.14;100.00;96079.91;5215994;28;22076;-58
2022/04/01 08:37:27;;;;;;;6.30;5.90;;;3.50;99.90;;;3.92;100.00;96072.88;5216196;28;20235;-58
2022/04/01 08:40:00;;;;;;;7.13;6.63;;;3.30;99.90;;;3.92;100.00;96083.00;5211282;28;20204;-59
2022/04/01 08:42:37;;;;;;;7.13;6.63;;;3.20;99.90;;;3.86;100.00;96081.78;5214025;28;20628;-58
2022/04/01 08:45:17;;;;;;;8.30;7.60;;;3.30;99.90;;;3.91;100.00;96091.34;5213605;28;20235;-59
2022/04/01 08:47:51;;;;;;;13.83;12.00;;;3.40;99.90;;;3.96;100.00;96099.19;5213620;28;20296;-58
2022/04/01 08:50:26;;;;;;;17.03;13.33;;;3.40;99.90;;;3.96;100.00;96109.28;5218001;28;20315;-59
2022/04/01 08:53:00;;;;;;;9.27;8.37;;;3.40;99.90;;;4.13;100.00;96103.47;5216622;28;20201;-58
2022/04/01 08:55:34;;;;;;;9.03;8.30;;;3.50;99.90;;;4.16;100.00;96102.78;5216611;28;20225;-59
2022/04/01 08:58:08;;;;;;;9.27;8.47;;;3.60;99.90;;;4.30;100.00;96106.88;5216881;28;20197;-59
2022/04/01 09:00:46;;;;;;;10.97;10.07;;;3.70;99.90;;;4.16;100.00;96108.69;5219091;28;20200;-58
2022/04/01 09:03:22;;;;;;;6.77;6.27;;;3.50;99.90;;;4.26;100.00;96110.94;5215907;28;20869;-59
2022/04/01 09:05:59;;;;;;;7.97;7.37;;;3.50;99.90;;;4.37;100.00;96115.66;5220040;28;20225;-58
2022/04/01 09:08:37;;;;;;;7.27;6.67;;;3.60;99.90;;;4.42;100.00;96121.84;5218169;28;20629;-58
2022/04/01 09:11:14;;;;;;;6.67;6.17;;;3.70;99.90;;;4.49;100.00;96118.81;5217728;28;20638;-57
2022/04/01 09:13:51;;;;;;;7.00;6.40;;;3.70;99.90;;;4.49;100.00;96118.81;5219165;28;20789;-56
2022/04/01 09:16:33;;;;;;;6.87;6.47;;;3.70;99.90;;;4.49;100.00;96123.88;5218271;28;20213;-58
2022/04/01 09:19:09;;;;;;;6.93;6.43;;;3.60;99.90;;;4.40;100.00;96123.41;5222044;28;20308;-59
2022/04/01 09:21:47;;;;;;;7.53;6.93;;;3.70;99.90;;;4.42;100.00;96127.75;5217422;28;20201;-59
2022/04/01 09:24:21;;;;;;;15.83;14.33;;;3.80;99.90;;;4.51;100.00;96123.16;5224671;28;20222;-58
2022/04/01 09:26:58;;;;;;;9.17;8.37;;;3.80;99.90;;;4.49;100.00;96119.72;5224277;28;20227;-58
2022/04/01 09:29:36;;;;;;;8.73;8.13;;;3.80;99.90;;;4.58;100.00;96131.06;5224531;28;20710;-58
2022/04/01 09:32:11;;;;;;;9.30;8.60;;;3.80;99.90;;;4.51;100.00;96123.16;5223347;28;20287;-58
2022/04/01 09:34:52;;;;;;;7.67;7.17;;;3.80;99.90;;;4.50;100.00;96131.56;5219058;28;20717;-60
2022/04/01 09:37:40;;;;;;;8.03;7.43;;;3.70;99.90;;;4.49;100.00;96127.31;5223321;28;20224;-60
2022/04/01 09:40:17;;;;;;;7.77;7.07;;;3.70;99.90;;;4.50;100.00;96134.09;5224413;28;20578;-60
2022/04/01 09:42:53;;;;;;;8.10;7.40;;;3.60;99.90;;;4.54;100.00;96131.72;5224348;28;20214;-58
2022/04/01 09:45:31;;;;;;;6.97;6.47;;;3.70;99.90;;;4.57;100.00;96129.34;5222872;28;20305;-58
2022/04/01 09:48:10;;;;;;;7.60;6.90;;;3.70;99.90;;;4.64;100.00;96134.81;5224327;28;20186;-58
2022/04/01 09:50:59;;;;;;;7.60;7.00;;;3.80;99.90;;;4.57;100.00;96131.88;5223548;28;20202;-58
2022/04/01 09:53:36;;;;;;;7.57;6.97;;;3.80;99.90;;;4.60;100.00;96147.22;5221801;28;20218;-58
2022/04/01 09:56:10;;;;;;;8.43;7.80;;;3.90;99.90;;;4.51;100.00;96140.88;5221962;28;20211;-59
2022/04/01 09:58:45;;;;;;;7.90;7.20;;;3.90;99.90;;;4.57;100.00;96142.00;5222297;28;20209;-58
2022/04/01 10:01:19;;;;;;;7.27;6.67;;;3.90;99.90;;;4.49;100.00;96145.00;5220896;28;20646;-59
2022/04/01 10:03:53;;;;;;;7.80;7.20;;;3.80;99.90;;;4.36;100.00;96142.63;5222477;28;20309;-57
2022/04/01 10:06:28;;;;;;;7.23;6.73;;;3.60;99.90;;;4.23;100.00;96147.81;5224253;28;20235;-58
2022/04/01 10:09:09;;;;;;;7.37;6.77;;;3.60;99.90;;;4.34;100.00;96161.03;5224076;28;20194;-57
2022/04/01 10:11:44;;;;;;;7.53;6.93;;;3.70;99.90;;;4.29;100.00;96161.66;5224511;28;20205;-58
2022/04/01 10:14:20;;;;;;;6.80;6.33;;;3.70;99.90;;;4.19;100.00;96153.50;5225615;28;21082;-57
2022/04/01 10:16:56;;;;;;;6.47;5.97;;;3.50;99.90;;;4.24;100.00;96157.16;5224972;28;20227;-58
2022/04/01 10:19:34;;;;;;;6.70;6.30;;;3.50;99.90;;;4.15;100.00;96167.63;5223944;28;20197;-57
2022/04/01 10:22:08;;;;;;;7.93;7.33;;;3.60;99.90;;;4.26;100.00;96168.19;5224886;28;20200;-58
2022/04/01 10:24:48;;;;;;;7.50;7.00;;;3.60;99.90;;;4.40;100.00;96167.25;5221375;28;20572;-59
2022/04/01 10:27:28;;;;;;;6.53;6.03;;;3.70;99.90;;;4.34;100.00;96169.47;5227482;28;20208;-57
2022/04/01 10:30:01;;;;;;;6.30;5.90;;;3.70;99.90;;;4.25;100.00;96169.84;5223691;28;20200;-58
2022/04/01 10:32:39;;;;;;;5.57;5.17;;;3.60;99.90;;;4.23;100.00;96165.50;5224424;28;20272;-58
2022/04/01 10:35:26;;;;;;;6.63;6.20;;;3.60;99.90;;;4.24;100.00;96167.25;5224611;28;20245;-59
2022/04/01 10:38:18;;;;;;;6.50;6.10;;;3.60;99.90;;;4.37;100.00;96167.09;5222055;28;20683;-59
2022/04/01 10:40:53;;;;;;;6.60;6.10;;;3.60;99.90;;;4.37;100.00;96169.63;5219297;28;20658;-58
2022/04/01 10:43:29;;;;;;;6.10;5.70;;;3.70;99.90;;;4.46;100.00;96166.72;5224470;28;21776;-59
2022/04/01 10:46:06;;;;;;;6.57;6.07;;;3.80;99.90;;;4.48;100.00;96166.00;5223813;28;20206;-59
2022/04/01 10:52:19;;;;;;;6.23;5.83;;;3.80;99.90;;;4.47;100.00;96171.88;5220152;28;20661;-58
2022/04/01 10:55:09;;;;;;;5.83;5.50;;;3.70;99.90;;;4.32;100.00;96185.34;5221009;28;20223;-57
2022/04/01 10:57:45;;;;;;;4.97;4.73;;;3.60;99.90;;;4.33;100.00;96187.97;5220801;28;20770;-58
2022/04/01 11:00:19;;;;;;;5.00;4.63;;;3.60;99.90;;;4.23;100.00;96190.78;5222707;28;20201;-59
2022/04/01 11:02:52;;;;;;;4.90;4.60;;;3.50;99.90;;;4.15;100.00;96197.97;5220677;28;20303;-59
2022/04/01 11:05:30;;;;;;;5.10;4.80;;;3.50;99.90;;;4.12;100.00;96194.38;5214668;28;20230;-59
2022/04/01 11:08:23;;;;;;;4.40;4.20;;;3.50;99.90;;;4.16;100.00;96191.25;5217814;28;20204;-59
2022/04/01 11:11:09;;;;;;;4.83;4.60;;;3.50;99.90;;;3.91;100.00;96197.47;5216573;28;20669;-61
2022/04/01 11:13:42;;;;;;;4.30;4.10;;;3.30;99.90;;;3.99;100.00;96191.19;5217328;28;20285;-59